createdAt,value
2023-05-18T00:00:25.554Z,96046.00
2023-05-18T00:02:58.158Z,96038.59
2023-05-18T00:05:34.167Z,96038.16
2023-05-18T00:08:06.001Z,96041.03
2023-05-18T00:10:37.563Z,96039.41
2023-05-18T00:13:09.004Z,96038.63
2023-05-18T00:15:40.419Z,96038.22
2023-05-18T00:18:11.896Z,96036.66
2023-05-18T00:20:43.766Z,96035.09
2023-05-18T00:23:16.445Z,96032.34
2023-05-18T00:25:47.901Z,96030.72
2023-05-18T00:28:19.366Z,96028.38
2023-05-18T00:30:50.774Z,96020.63
2023-05-18T00:33:22.545Z,96028.50
2023-05-18T00:35:53.987Z,96026.84
2023-05-18T00:38:25.550Z,96022.66
2023-05-18T00:40:57.074Z,96024.53
2023-05-18T00:43:28.567Z,96021.53
2023-05-18T00:46:00.047Z,96023.84
2023-05-18T00:48:31.477Z,96028.06
2023-05-18T00:51:02.920Z,96020.09
2023-05-18T00:53:34.428Z,96020.00
2023-05-18T00:56:06.054Z,96016.19
2023-05-18T00:58:38.592Z,96021.00
2023-05-18T01:01:10.059Z,96018.66
2023-05-18T01:03:43.080Z,96020.88
2023-05-18T01:06:14.876Z,96013.22
2023-05-18T01:08:47.219Z,96011.34
2023-05-18T01:11:27.119Z,96004.06
2023-05-18T01:14:01.805Z,96007.41
2023-05-18T01:16:37.447Z,96008.72
2023-05-18T01:19:14.039Z,96006.75
2023-05-18T01:22:04.415Z,96007.38
2023-05-18T01:24:42.705Z,96004.63
2023-05-18T01:27:17.814Z,96003.72
2023-05-18T01:29:49.955Z,96003.19
2023-05-18T01:32:21.917Z,96005.28
2023-05-18T01:34:53.328Z,96006.41
2023-05-18T01:37:24.854Z,96003.31
2023-05-18T01:39:56.305Z,96012.38
2023-05-18T01:42:28.360Z,95999.00
2023-05-18T01:45:07.373Z,96008.84
2023-05-18T01:47:41.447Z,96004.97
2023-05-18T01:50:21.169Z,95992.81
2023-05-18T01:53:03.156Z,95994.25
2023-05-18T01:55:35.435Z,95994.03
2023-05-18T01:58:08.171Z,95998.88
2023-05-18T02:00:39.656Z,95993.88
2023-05-18T02:03:12.479Z,95993.88
2023-05-18T02:05:44.108Z,95999.97
2023-05-18T02:08:16.296Z,95989.25
2023-05-18T02:10:47.664Z,95989.16
2023-05-18T02:13:19.049Z,95983.38
2023-05-18T02:15:50.598Z,95981.06
2023-05-18T02:18:22.137Z,95990.91
2023-05-18T02:21:00.499Z,95984.06
2023-05-18T02:23:31.967Z,95984.38
2023-05-18T02:26:03.397Z,95984.06
2023-05-18T02:28:34.909Z,95978.63
2023-05-18T02:31:07.245Z,95981.28
2023-05-18T02:33:41.721Z,95981.94
2023-05-18T02:36:14.050Z,95979.50
2023-05-18T02:38:45.544Z,95977.97
2023-05-18T02:41:16.965Z,95974.50
2023-05-18T02:43:48.340Z,95973.63
2023-05-18T02:46:19.889Z,95975.06
2023-05-18T02:48:51.451Z,95980.38
2023-05-18T02:51:23.363Z,95971.66
2023-05-18T02:53:54.800Z,95973.97
2023-05-18T02:56:26.274Z,95976.28
2023-05-18T02:58:58.511Z,95969.44
2023-05-18T03:01:30.104Z,95974.75
2023-05-18T03:04:01.592Z,95968.31
2023-05-18T03:06:32.982Z,95969.00
2023-05-18T03:09:04.797Z,95967.88
2023-05-18T03:11:36.270Z,95958.69
2023-05-18T03:14:07.650Z,95964.47
2023-05-18T03:16:39.634Z,95967.88
2023-05-18T03:19:11.156Z,95973.19
2023-05-18T03:21:42.653Z,95970.09
2023-05-18T03:24:14.610Z,95963.22
2023-05-18T03:26:48.579Z,95965.56
2023-05-18T03:29:20.621Z,95958.81
2023-05-18T03:31:52.144Z,95957.47
2023-05-18T03:34:23.545Z,95959.69
2023-05-18T03:36:55.163Z,95961.13
2023-05-18T03:39:26.550Z,95967.84
2023-05-18T03:41:57.960Z,95964.44
2023-05-18T03:44:29.341Z,95969.72
2023-05-18T03:47:00.889Z,95972.84
2023-05-18T03:49:33.763Z,95967.53
2023-05-18T03:52:05.364Z,95965.53
2023-05-18T03:54:36.775Z,95965.88
2023-05-18T03:57:08.152Z,95968.97
2023-05-18T03:59:39.581Z,95973.16
2023-05-18T04:02:12.004Z,95975.38
2023-05-18T04:04:45.997Z,95971.16
2023-05-18T04:07:17.406Z,95970.50
2023-05-18T04:09:49.292Z,95972.06
2023-05-18T04:12:20.941Z,95970.75
2023-05-18T04:14:54.141Z,95969.63
2023-05-18T04:17:26.126Z,95976.97
2023-05-18T04:19:57.559Z,95982.69
2023-05-18T04:22:31.266Z,95974.06
2023-05-18T04:25:03.233Z,95977.16
2023-05-18T04:27:34.850Z,95983.72
2023-05-18T04:30:08.661Z,95976.75
2023-05-18T04:32:42.843Z,95980.19
2023-05-18T04:35:15.288Z,95984.94
2023-05-18T04:37:46.743Z,95986.59
2023-05-18T04:40:18.195Z,95992.78
2023-05-18T04:42:49.706Z,95985.72
2023-05-18T04:45:22.010Z,95987.94
2023-05-18T04:47:54.305Z,95993.13
2023-05-18T04:50:26.212Z,95988.28
2023-05-18T04:52:58.395Z,95991.91
2023-05-18T04:55:31.127Z,95991.69
2023-05-18T04:58:03.456Z,95993.03
2023-05-18T05:00:34.837Z,95996.88
2023-05-18T05:03:06.838Z,95994.34
2023-05-18T05:05:38.328Z,95996.00
2023-05-18T05:08:09.808Z,95999.22
2023-05-18T05:10:41.169Z,95997.06
2023-05-18T05:13:12.548Z,96000.28
2023-05-18T05:15:43.972Z,96003.94
2023-05-18T05:18:15.584Z,95999.50
2023-05-18T05:20:47.045Z,96001.16
2023-05-18T05:23:18.573Z,95998.97
2023-05-18T05:25:50.071Z,95994.63
2023-05-18T05:28:21.474Z,96002.69
2023-05-18T05:30:52.920Z,96000.56
2023-05-18T05:33:24.286Z,96003.31
2023-05-18T05:35:55.861Z,95999.00
2023-05-18T05:38:27.313Z,95992.31
2023-05-18T05:40:58.726Z,95999.38
2023-05-18T05:43:30.107Z,95988.06
2023-05-18T05:46:01.472Z,95982.94
2023-05-18T05:48:34.872Z,95992.13
2023-05-18T05:51:06.431Z,95993.78
2023-05-18T05:53:37.859Z,95989.00
2023-05-18T05:56:09.394Z,95990.47
2023-05-18T05:58:42.244Z,95986.38
2023-05-18T06:01:13.666Z,95984.22
2023-05-18T06:03:45.387Z,95987.94
2023-05-18T06:06:16.991Z,95992.03
2023-05-18T06:08:48.393Z,95984.06
2023-05-18T06:11:19.758Z,95997.28
2023-05-18T06:13:52.397Z,96001.66
2023-05-18T06:16:24.727Z,95998.59
2023-05-18T06:18:56.294Z,95998.00
2023-05-18T06:21:27.855Z,96002.03
2023-05-18T06:23:59.552Z,96009.59
2023-05-18T06:26:31.161Z,96003.38
2023-05-18T06:29:02.996Z,96005.09
2023-05-18T06:31:34.852Z,96007.41
2023-05-18T06:34:06.224Z,95988.34
2023-05-18T06:36:38.101Z,96003.09
2023-05-18T06:39:09.739Z,96002.06
2023-05-18T06:41:41.130Z,95999.56
2023-05-18T06:44:12.691Z,95996.97
2023-05-18T06:46:44.221Z,96007.38
2023-05-18T06:49:15.841Z,96012.97
2023-05-18T06:51:47.248Z,96003.19
2023-05-18T06:54:18.658Z,96009.34
2023-05-18T06:56:50.114Z,96005.56
2023-05-18T06:59:22.362Z,96003.09
2023-05-18T07:01:53.879Z,96015.72
2023-05-18T07:04:25.540Z,96014.13
2023-05-18T07:06:56.922Z,96010.06
2023-05-18T07:09:28.737Z,96014.75
2023-05-18T07:12:00.252Z,96017.66
2023-05-18T07:14:31.699Z,96006.28
2023-05-18T07:17:04.183Z,96007.41
2023-05-18T07:19:35.680Z,96010.28
2023-05-18T07:22:07.715Z,96002.00
2023-05-18T07:24:39.270Z,96012.50
2023-05-18T07:27:10.658Z,96010.25
2023-05-18T07:29:42.194Z,96009.38
2023-05-18T07:32:13.611Z,96003.03
2023-05-18T07:34:46.769Z,96006.84
2023-05-18T07:37:18.174Z,96003.63
2023-05-18T07:39:49.642Z,96006.53
2023-05-18T07:42:21.047Z,96002.53
2023-05-18T07:44:52.536Z,96012.44
2023-05-18T07:47:24.001Z,96012.25
2023-05-18T07:49:55.926Z,96000.13
2023-05-18T07:52:27.392Z,95999.88
2023-05-18T07:54:58.818Z,95995.88
2023-05-18T07:57:31.013Z,96005.44
2023-05-18T08:00:04.957Z,96001.84
2023-05-18T08:02:36.537Z,95994.16
2023-05-18T08:05:08.508Z,95992.22
2023-05-18T08:07:39.878Z,95993.09
2023-05-18T08:10:11.558Z,95990.34
2023-05-18T08:12:42.965Z,95997.03
2023-05-18T08:15:14.392Z,95998.94
2023-05-18T08:17:45.958Z,96005.09
2023-05-18T08:20:17.474Z,95993.63
2023-05-18T08:22:48.996Z,95994.81
2023-05-18T08:25:20.903Z,96006.34
2023-05-18T08:27:52.342Z,95995.75
2023-05-18T08:30:23.850Z,95993.81
2023-05-18T08:32:55.429Z,96004.16
2023-05-18T08:35:27.008Z,96001.75
2023-05-18T08:37:58.386Z,95997.31
2023-05-18T08:40:35.995Z,96001.56
2023-05-18T08:43:11.773Z,95986.13
2023-05-18T08:45:48.778Z,95994.66
2023-05-18T08:48:22.312Z,95991.34
2023-05-18T08:50:56.626Z,95999.44
2023-05-18T08:53:29.441Z,95985.66
2023-05-18T08:56:01.496Z,95991.03
2023-05-18T08:58:35.883Z,95993.41
2023-05-18T09:01:08.774Z,95988.94
2023-05-18T09:03:41.218Z,95993.91
2023-05-18T09:06:12.779Z,95989.19
2023-05-18T09:08:44.901Z,95987.34
2023-05-18T09:11:17.253Z,95977.75
2023-05-18T09:13:49.748Z,95988.09
2023-05-18T09:16:21.273Z,95983.91
2023-05-18T09:18:53.000Z,95987.41
2023-05-18T09:21:24.399Z,95987.84
2023-05-18T09:23:55.846Z,95988.97
2023-05-18T09:26:27.560Z,95983.91
2023-05-18T09:28:59.599Z,95995.31
2023-05-18T09:31:31.366Z,95993.84
2023-05-18T09:34:03.498Z,96001.59
2023-05-18T09:36:34.986Z,95991.25
2023-05-18T09:39:12.416Z,95995.19
2023-05-18T09:41:43.941Z,95996.38
2023-05-18T09:44:16.659Z,95984.94
2023-05-18T09:46:48.059Z,95998.97
2023-05-18T09:49:21.602Z,95992.06
2023-05-18T09:51:53.755Z,95992.31
2023-05-18T09:54:25.408Z,95986.69
2023-05-18T09:57:09.450Z,95989.75
2023-05-18T09:59:42.089Z,95995.88
2023-05-18T10:02:15.458Z,96005.84
2023-05-18T10:04:46.939Z,95993.44
2023-05-18T10:07:18.594Z,95993.53
2023-05-18T10:10:00.227Z,95995.00
2023-05-18T10:12:31.634Z,95997.88
2023-05-18T10:15:03.010Z,95993.28
2023-05-18T10:17:34.740Z,95997.91
2023-05-18T10:20:08.624Z,95993.41
2023-05-18T10:22:40.614Z,96005.63
2023-05-18T10:25:12.149Z,95999.03
2023-05-18T10:27:44.205Z,96005.03
2023-05-18T10:30:17.571Z,95997.00
2023-05-18T10:32:49.505Z,95998.50
2023-05-18T10:35:21.867Z,95993.66
2023-05-18T10:37:55.143Z,95988.09
2023-05-18T15:23:47.503Z,95917.69
2023-05-18T15:26:19.113Z,95926.06
2023-05-18T15:28:50.646Z,95924.53
2023-05-18T15:31:22.330Z,95926.47
2023-05-18T15:33:53.972Z,95928.84
2023-05-18T15:36:25.622Z,95928.91
2023-05-18T15:38:57.158Z,95929.69
2023-05-18T15:41:33.700Z,95936.97
2023-05-18T15:44:05.383Z,95934.69
2023-05-18T15:46:37.083Z,95928.63
2023-05-18T15:49:08.586Z,95924.34
2023-05-18T15:51:40.110Z,95922.38
2023-05-18T15:54:12.025Z,95927.41
2023-05-18T15:56:43.676Z,95926.97
2023-05-18T15:59:15.236Z,95923.56
2023-05-18T16:01:46.942Z,95919.75
2023-05-18T16:04:18.521Z,95919.34
2023-05-18T16:06:50.038Z,95922.72
2023-05-18T16:09:21.738Z,95925.78
2023-05-18T16:11:53.376Z,95924.22
2023-05-18T16:14:24.906Z,95919.53
2023-05-18T16:16:56.615Z,95917.94
2023-05-18T16:19:28.762Z,95917.91
2023-05-18T16:22:00.374Z,95920.16
2023-05-18T16:24:31.964Z,95929.34
2023-05-18T16:27:03.686Z,95925.91
2023-05-18T16:29:35.455Z,95919.75
2023-05-18T16:32:10.074Z,95927.81
2023-05-18T16:34:42.035Z,95922.38
2023-05-18T16:37:13.591Z,95917.78
2023-05-18T16:39:45.184Z,95927.72
2023-05-18T16:42:18.399Z,95928.50
2023-05-18T16:44:50.073Z,95929.97
2023-05-18T16:47:22.344Z,95933.41
2023-05-18T16:49:54.282Z,95943.66
2023-05-18T16:52:26.200Z,95937.06
2023-05-18T16:54:57.730Z,95949.00
2023-05-18T16:57:30.161Z,95953.13
2023-05-18T17:00:01.721Z,95953.94
2023-05-18T17:02:34.189Z,95948.97
2023-05-18T17:05:08.546Z,95952.06
2023-05-18T17:07:40.810Z,95950.31
2023-05-18T17:10:12.533Z,95950.81
2023-05-18T17:12:47.071Z,95945.84
2023-05-18T17:15:18.631Z,95956.44
2023-05-18T17:17:50.188Z,95950.69
2023-05-18T17:20:22.242Z,95949.53
2023-05-18T17:22:54.049Z,95952.59
2023-05-18T17:25:25.880Z,95946.47
2023-05-18T17:27:58.754Z,95950.22
2023-05-18T17:30:30.729Z,95946.78
2023-05-18T17:33:03.058Z,95946.78
2023-05-18T17:35:34.845Z,95939.09
2023-05-18T17:38:06.508Z,95946.34
2023-05-18T17:40:38.048Z,95951.69
2023-05-18T17:43:09.743Z,95949.41
2023-05-18T17:45:41.274Z,95947.38
2023-05-18T17:48:12.898Z,95940.13
2023-05-18T17:50:45.536Z,95940.53
2023-05-18T17:53:17.506Z,95947.69
2023-05-18T17:55:49.086Z,95941.53
2023-05-18T17:58:21.314Z,95948.72
2023-05-18T18:00:52.788Z,95949.16
2023-05-18T18:03:24.576Z,95950.69
2023-05-18T18:05:56.200Z,95958.72
2023-05-18T18:08:30.525Z,95959.84
2023-05-18T18:11:02.658Z,95955.56
2023-05-18T18:13:34.240Z,95955.16
2023-05-18T18:16:06.248Z,95960.81
2023-05-18T18:18:38.996Z,95959.69
2023-05-18T18:21:10.949Z,95969.59
2023-05-18T18:23:42.536Z,95962.78
2023-05-18T18:26:14.173Z,95963.56
2023-05-18T18:28:45.834Z,95952.09
2023-05-18T18:31:17.699Z,95951.63
2023-05-18T18:33:52.211Z,95960.41
2023-05-18T18:36:26.252Z,95953.44
2023-05-18T18:38:58.132Z,95959.22
2023-05-18T18:41:29.922Z,95958.78
2023-05-18T18:44:01.789Z,95956.84
2023-05-18T18:46:33.474Z,95957.22
2023-05-18T18:49:05.163Z,95955.31
2023-05-18T18:51:36.725Z,95959.47
2023-05-18T18:54:08.252Z,95960.25
2023-05-18T18:56:39.813Z,95957.59
2023-05-18T18:59:11.634Z,95963.69
2023-05-18T19:01:43.451Z,95964.06
2023-05-18T19:04:15.065Z,95965.53
2023-05-18T19:06:46.665Z,95967.72
2023-05-18T19:09:18.234Z,95972.22
2023-05-18T19:11:49.818Z,95980.59
2023-05-18T19:14:21.330Z,95986.72
2023-05-18T19:16:52.999Z,95982.88
2023-05-18T19:19:24.658Z,95987.44
2023-05-18T19:21:56.317Z,95990.09
2023-05-18T19:24:27.989Z,95990.47
2023-05-18T19:26:59.660Z,95998.41
2023-05-18T19:29:31.935Z,95998.78
2023-05-18T19:32:04.192Z,95999.91
2023-05-18T19:34:36.062Z,96009.47
2023-05-18T19:37:07.736Z,96006.25
2023-05-18T19:39:39.281Z,96007.34
2023-05-18T19:42:10.954Z,96012.31
2023-05-18T19:44:42.500Z,96014.09
2023-05-18T19:47:14.405Z,96011.41
2023-05-18T19:49:46.350Z,96013.31
2023-05-18T19:52:19.877Z,96009.88
2023-05-18T19:54:51.793Z,96004.53
2023-05-18T19:57:23.459Z,96012.19
2023-05-18T19:59:54.994Z,96014.81
2023-05-18T20:02:26.640Z,96015.91
2023-05-18T20:04:58.234Z,96017.47
2023-05-18T20:07:29.846Z,96011.69
2023-05-18T20:10:01.434Z,96021.19
2023-05-18T20:12:33.129Z,96014.69
2023-05-18T20:15:05.381Z,96020.44
2023-05-18T20:17:37.069Z,96013.47
2023-05-18T20:20:08.985Z,96019.28
2023-05-18T20:22:40.840Z,96021.97
2023-05-18T20:25:12.879Z,96015.84
2023-05-18T20:27:44.613Z,96014.59
2023-05-18T20:30:16.216Z,96014.69
2023-05-18T20:32:47.794Z,96018.88
2023-05-18T20:35:20.768Z,96020.28
2023-05-18T20:37:57.381Z,96016.09
2023-05-18T20:40:30.778Z,96019.94
2023-05-18T20:43:04.822Z,96019.88
2023-05-18T20:45:36.736Z,96016.84
2023-05-18T20:48:09.178Z,96018.03
2023-05-18T20:50:41.093Z,96022.97
2023-05-18T20:53:12.632Z,96008.78
2023-05-18T20:55:46.211Z,96019.34
2023-05-18T20:58:18.599Z,96019.75
2023-05-18T21:00:50.305Z,96020.16
2023-05-18T21:03:22.420Z,96018.25
2023-05-18T21:05:54.162Z,96010.69
2023-05-18T21:08:26.429Z,96017.50
2023-05-18T21:10:58.025Z,96018.63
2023-05-18T21:13:29.585Z,96014.41
2023-05-18T21:16:01.505Z,96010.69
2023-05-18T21:18:34.387Z,96016.03
2023-05-18T21:21:06.284Z,96019.47
2023-05-18T21:23:37.802Z,96017.50
2023-05-18T21:26:09.390Z,96016.31
2023-05-18T21:28:41.059Z,96016.31
2023-05-18T21:31:12.722Z,96009.88
2023-05-18T21:33:47.878Z,96010.91
2023-05-18T21:36:34.175Z,96014.28
2023-05-18T21:39:08.393Z,96014.13
2023-05-18T21:41:42.371Z,96018.91
2023-05-18T21:44:14.407Z,96007.28
2023-05-18T21:46:46.024Z,96009.66
2023-05-18T21:49:17.692Z,96009.56
2023-05-18T21:51:49.326Z,96004.44
2023-05-18T21:54:21.030Z,96004.59
2023-05-18T21:56:52.709Z,95999.97
2023-05-18T21:59:24.280Z,95997.31
2023-05-18T22:01:56.200Z,95989.72
2023-05-18T22:04:27.805Z,95995.47
2023-05-18T22:07:00.692Z,95986.69
2023-05-18T22:09:32.227Z,95991.53
2023-05-18T22:12:04.002Z,95987.06
2023-05-18T22:14:35.949Z,95985.09
2023-05-18T22:17:07.507Z,95983.22
2023-05-18T22:19:39.124Z,95986.63
2023-05-18T22:22:16.515Z,95971.31
2023-05-18T22:24:54.962Z,95967.97
2023-05-18T22:27:26.769Z,95979.47
2023-05-18T22:29:58.354Z,95983.41
2023-05-18T22:32:30.209Z,95984.59
2023-05-18T22:35:02.987Z,95982.97
2023-05-18T22:37:34.589Z,95978.41
2023-05-18T22:40:06.843Z,95979.13
2023-05-18T22:42:38.393Z,95983.69
2023-05-18T22:45:11.545Z,95979.41
2023-05-18T22:47:45.127Z,95968.22
2023-05-18T22:50:16.795Z,95979.31
2023-05-18T22:52:48.388Z,95977.78
2023-05-18T22:55:20.434Z,95972.84
2023-05-18T22:57:52.091Z,95978.19
2023-05-18T23:00:23.817Z,95978.13
2023-05-18T23:02:56.567Z,95977.78
2023-05-18T23:05:28.247Z,95972.09
2023-05-18T23:07:59.877Z,95963.31
2023-05-18T23:10:31.528Z,95968.94
2023-05-18T23:13:03.241Z,95969.63
2023-05-18T23:15:34.908Z,95971.50
2023-05-18T23:18:09.330Z,95958.91
2023-05-18T23:20:42.093Z,95964.59
2023-05-18T23:23:13.673Z,95967.91
2023-05-18T23:25:45.326Z,95960.78
2023-05-18T23:28:16.955Z,95954.75
2023-05-18T23:30:48.590Z,95960.53
2023-05-18T23:33:20.493Z,95965.06
2023-05-18T23:35:52.292Z,95957.06
2023-05-18T23:38:34.614Z,95964.66
2023-05-18T23:41:06.897Z,95961.56
2023-05-18T23:43:38.912Z,95960.44
2023-05-18T23:46:10.948Z,95961.63
2023-05-18T23:48:42.749Z,95950.22
2023-05-18T23:51:20.559Z,95952.09
2023-05-18T23:53:52.574Z,95953.16
2023-05-18T23:56:24.900Z,95950.66
2023-05-18T23:58:56.639Z,95953.31
